Terminal Aerodrome Forecast
Issued by NWS

Home | Current Version | Previous Version | Text Only | Print | Product List | Glossary On
Versions: 1 2 3 4 5 6 7 8 9 10 11 12 13 14 15 16 17 18 19 20
000
FTUS41 KPBZ 292300
TAFZZV
TAF
KZZV 292337Z 3000/3024 26015G25KT 4SM -SHRA BR OVC012
     FM300300 28010G20KT 4SM -SHSN OVC008
     FM300700 30010G20KT P6SM -SHSN OVC015
     FM301500 31010G20KT P6SM BKN025=

USA.gov is the U.S. government's official web portal to all federal, state and local government web resources and services.